Merriam, Kansas
Current Conditions -  °F | °C
As of 8:54 AM on Thursday 18 Dec 2014 (Local Time) from KMKC Reporting Station
Light Snow Light Snow  
Wind Chill: 22°   Ceiling: 700
Heat Index: 30°   Visibility: 2mi
Dew Point: 27°   Wind: 9mph
Humidity: 88%   Direction: 70°ENE
Pressure: 30.24"   Gusts: NA
Location:  38.993°N, 94.6774°W
Report Text: KMKC 181454Z 07008KT 2SM -SN BR OVC007 M01/M03 A3024 RMK AO2 SNE1357B16 SLP247 P0001 60001 T10111028 51007
Loading
Personal Weather Stations






























Interactive Weather Map New forecast layout! Learn more

10-Day Weather Forecast

Advertisements
Track Severe Weather on mobile